Time;durP1;ratioP1;P1;durP2;ratioP2;P2;SDS_P1;SDS_P2;PMS_P1;PMS_P2;Temp;Humidity;BMP_temperature;BMP_pressure;BME280_temperature;BME280_humidity;BME280_pressure;Samples;Min_cycle;Max_cycle;Signal;HPM_P1;HPM_P2
2021/03/15 00:00:22;;;;;;;10.23;3.67;;;;;;;23.60;46.47;99836.78;5054598;28;20353;-60
2021/03/15 00:02:51;;;;;;;8.88;3.63;;;;;;;23.55;46.35;99838.50;5072650;28;20024;-60
2021/03/15 00:05:16;;;;;;;11.02;3.55;;;;;;;23.51;46.50;99832.63;5072676;28;20012;-61
2021/03/15 00:07:41;;;;;;;9.98;3.95;;;;;;;23.52;46.80;99837.06;5072733;28;20103;-60
2021/03/15 00:10:09;;;;;;;12.45;4.07;;;;;;;23.55;45.98;99839.34;5072472;28;20115;-61
2021/03/15 00:12:34;;;;;;;11.48;3.60;;;;;;;23.48;49.01;99844.06;5072465;28;20031;-61
2021/03/15 00:15:00;;;;;;;11.27;3.85;;;;;;;23.49;46.74;99843.00;5072303;28;20020;-61
2021/03/15 00:17:26;;;;;;;10.45;3.92;;;;;;;23.49;46.30;99843.00;5072417;28;20048;-61
2021/03/15 00:19:51;;;;;;;9.65;4.00;;;;;;;23.47;45.74;99847.88;5071916;28;20048;-61
2021/03/15 00:22:16;;;;;;;9.57;3.85;;;;;;;23.51;46.25;99832.63;5072619;28;20020;-60
2021/03/15 00:24:42;;;;;;;11.50;4.40;;;;;;;23.45;46.12;99839.03;5072595;28;20025;-61
2021/03/15 00:27:07;;;;;;;9.77;3.60;;;;;;;23.41;48.50;99837.81;5071867;28;20032;-61
2021/03/15 00:29:32;;;;;;;10.32;3.78;;;;;;;23.44;46.14;99847.50;5072055;28;20501;-60
2021/03/15 00:31:57;;;;;;;15.13;4.40;;;;;;;23.45;45.68;99850.00;5072216;28;20020;-61
2021/03/15 00:34:23;;;;;;;9.82;4.00;;;;;;;23.37;46.52;99848.41;5072342;28;20077;-61
2021/03/15 00:36:48;;;;;;;10.45;3.97;;;;;;;23.38;46.22;99849.25;5072221;28;20025;-61
2021/03/15 00:39:13;;;;;;;8.90;3.85;;;;;;;23.48;46.22;99849.53;5072242;28;20086;-61
2021/03/15 00:41:39;;;;;;;14.23;4.78;;;;;;;23.45;47.42;99849.16;5054445;28;20067;-61
2021/03/15 00:44:05;;;;;;;11.40;4.15;;;;;;;23.40;47.16;99852.59;5072356;28;20059;-61
2021/03/15 00:46:31;;;;;;;8.25;3.65;;;;;;;23.44;48.26;99853.81;5072182;28;20070;-61
2021/03/15 00:48:56;;;;;;;11.60;3.40;;;;;;;23.43;48.48;99852.16;5072019;28;20028;-61
2021/03/15 00:51:21;;;;;;;9.73;3.65;;;;;;;23.37;49.24;99858.56;5072306;28;20024;-61
2021/03/15 00:53:47;;;;;;;9.15;3.83;;;;;;;23.43;49.47;99857.63;5071950;28;20044;-61
2021/03/15 00:56:12;;;;;;;9.10;3.30;;;;;;;23.40;48.76;99853.44;5070388;28;20037;-61
2021/03/15 00:58:38;;;;;;;8.93;3.70;;;;;;;23.47;48.95;99864.31;5072239;28;20072;-61
2021/03/15 01:01:03;;;;;;;8.98;4.35;;;;;;;23.45;49.65;99860.13;5071276;28;20032;-60
2021/03/15 01:03:29;;;;;;;11.40;4.30;;;;;;;23.51;49.60;99849.09;5072182;28;20031;-61
2021/03/15 01:05:56;;;;;;;12.70;4.68;;;;;;;23.48;49.52;99855.03;5053985;28;20467;-61
2021/03/15 01:08:22;;;;;;;9.13;4.32;;;;;;;23.50;48.96;99858.38;5071974;28;20025;-60
2021/03/15 01:10:49;;;;;;;12.43;4.32;;;;;;;23.54;50.09;99853.28;5072117;28;20061;-61
2021/03/15 01:13:15;;;;;;;8.77;3.38;;;;;;;23.47;48.86;99853.34;5071951;28;20108;-60
2021/03/15 01:15:41;;;;;;;9.95;3.42;;;;;;;23.47;49.75;99852.53;5072073;28;20025;-61
2021/03/15 01:18:07;;;;;;;11.73;3.97;;;;;;;23.46;49.01;99854.44;5071836;28;20031;-60
2021/03/15 01:20:33;;;;;;;10.85;4.15;;;;;;;23.44;51.11;99853.81;5053604;28;20028;-61
2021/03/15 01:22:59;;;;;;;9.38;3.55;;;;;;;23.41;50.31;99859.75;5071832;28;20032;-61
2021/03/15 01:25:30;;;;;;;9.00;3.40;;;;;;;23.38;53.00;99860.22;5071946;28;20031;-61
2021/03/15 01:27:56;;;;;;;11.88;3.83;;;;;;;23.41;53.15;99860.59;5071751;28;20062;-62
2021/03/15 01:30:24;;;;;;;10.43;4.00;;;;;;;23.40;53.52;99858.09;5072025;28;20032;-62
2021/03/15 01:32:50;;;;;;;11.68;3.90;;;;;;;23.38;55.27;99857.47;5075378;28;20099;-61
2021/03/15 01:35:15;;;;;;;10.07;3.90;;;;;;;23.44;54.66;99864.78;5075233;28;20148;-60
2021/03/15 01:37:40;;;;;;;11.98;4.32;;;;;;;23.38;53.48;99865.72;5075393;28;20029;-61
2021/03/15 01:40:06;;;;;;;12.05;3.67;;;;;;;23.26;49.36;99867.53;5074757;28;20025;-61
2021/03/15 01:42:32;;;;;;;10.65;3.75;;;;;;;23.20;47.86;99868.44;5075164;28;20036;-61
2021/03/15 01:44:57;;;;;;;9.75;4.07;;;;;;;23.15;48.19;99863.63;5075073;28;20029;-61
2021/03/15 01:47:23;;;;;;;11.50;3.72;;;;;;;23.13;47.52;99863.00;5075008;28;20115;-61
2021/03/15 01:49:49;;;;;;;11.93;3.97;;;;;;;23.16;48.00;99878.16;5074859;28;20020;-60
2021/03/15 01:52:14;;;;;;;13.25;4.35;;;;;;;23.10;47.58;99872.53;5074561;28;20103;-61
2021/03/15 01:54:40;;;;;;;10.73;3.25;;;;;;;23.06;47.74;99874.06;5053792;28;20468;-60
2021/03/15 01:57:06;;;;;;;11.02;3.72;;;;;;;23.07;48.49;99878.47;5054747;28;20029;-60
2021/03/15 01:59:31;;;;;;;11.32;3.80;;;;;;;23.06;47.62;99873.22;5055062;28;20028;-62
2021/03/15 02:01:57;;;;;;;10.15;3.65;;;;;;;23.05;48.44;99877.84;5054611;28;20028;-62
2021/03/15 02:04:26;;;;;;;10.95;4.40;;;;;;;23.01;48.71;99882.13;5054775;28;20158;-61
2021/03/15 02:06:51;;;;;;;11.80;4.03;;;;;;;22.96;47.00;99878.34;5054748;28;20135;-61
2021/03/15 02:09:17;;;;;;;9.30;3.45;;;;;;;23.03;46.92;99877.25;5054769;28;20052;-60
2021/03/15 02:11:46;;;;;;;10.13;3.35;;;;;;;23.01;46.96;99871.16;5055085;28;20029;-60
2021/03/15 02:14:30;;;;;;;12.60;3.95;;;;;;;23.03;47.70;99888.22;5054525;28;20051;-61
2021/03/15 02:17:23;;;;;;;9.60;3.83;;;;;;;22.98;47.99;99877.06;5054325;28;20055;-61
2021/03/15 02:20:09;;;;;;;10.68;3.80;;;;;;;22.98;47.25;99885.28;5049928;28;20286;-61
2021/03/15 02:22:43;;;;;;;9.48;3.60;;;;;;;23.03;47.22;99873.66;5054422;28;20391;-61
2021/03/15 02:25:34;;;;;;;12.15;4.05;;;;;;;23.05;47.87;99888.81;5054355;28;20099;-61
2021/03/15 02:28:26;;;;;;;10.57;3.55;;;;;;;23.01;46.54;99889.47;5053983;28;20028;-61
2021/03/15 02:31:12;;;;;;;9.77;3.92;;;;;;;23.06;46.10;99882.28;5054302;28;20049;-61
2021/03/15 02:33:59;;;;;;;12.27;4.25;;;;;;;23.06;46.31;99885.00;5053971;28;20044;-61
2021/03/15 02:36:30;;;;;;;15.25;4.13;;;;;;;23.04;46.63;99887.16;5054111;28;20025;-61
2021/03/15 02:38:56;;;;;;;10.27;3.65;;;;;;;23.04;48.75;99880.81;5053967;28;20479;-60
2021/03/15 02:41:23;;;;;;;12.30;4.20;;;;;;;23.08;48.52;99882.88;5053781;28;20041;-60
2021/03/15 02:43:53;;;;;;;12.18;4.60;;;;;;;23.11;49.87;99887.06;5052851;28;20095;-60
2021/03/15 02:46:21;;;;;;;12.88;4.15;;;;;;;23.11;47.49;99887.91;5054262;28;20379;-60
2021/03/15 02:48:49;;;;;;;9.13;3.70;;;;;;;23.14;48.19;99891.25;5053726;28;20495;-60
2021/03/15 02:51:18;;;;;;;11.95;3.85;;;;;;;23.11;49.90;99887.91;5053838;28;20483;-60
2021/03/15 02:53:45;;;;;;;8.75;3.35;;;;;;;23.08;49.23;99893.84;5064441;28;20037;-61
2021/03/15 02:56:18;;;;;;;9.52;4.20;;;;;;;23.09;49.40;99901.00;5073559;28;20399;-62
2021/03/15 02:58:44;;;;;;;9.52;4.05;;;;;;;23.06;49.35;99901.47;5073883;28;20071;-61
2021/03/15 03:01:10;;;;;;;12.15;4.35;;;;;;;23.13;50.33;99893.16;5073598;28;20032;-61
2021/03/15 03:03:36;;;;;;;8.25;3.55;;;;;;;23.13;49.62;99900.56;5073816;28;20108;-60
2021/03/15 03:06:03;;;;;;;10.60;3.90;;;;;;;23.15;49.85;99891.03;5055746;28;20227;-60
2021/03/15 03:08:30;;;;;;;9.32;3.85;;;;;;;23.20;50.60;99901.34;5073531;28;20486;-61
2021/03/15 03:10:57;;;;;;;10.65;3.45;;;;;;;23.18;49.19;99893.34;5073023;28;20029;-61
2021/03/15 03:13:25;;;;;;;10.25;3.65;;;;;;;23.21;48.93;99897.53;5073584;28;20120;-60
2021/03/15 03:15:51;;;;;;;12.50;3.88;;;;;;;23.24;48.98;99892.44;5073359;28;20048;-61
2021/03/15 03:18:20;;;;;;;10.40;3.88;;;;;;;23.30;49.60;99904.38;5073174;28;20456;-61
2021/03/15 03:20:52;;;;;;;10.70;4.28;;;;;;;23.21;49.13;99894.78;5055699;28;20024;-61
2021/03/15 03:23:19;;;;;;;10.25;3.63;;;;;;;23.18;49.68;99896.09;5073591;28;20020;-60
2021/03/15 03:25:46;;;;;;;9.95;3.60;;;;;;;23.09;51.27;99901.00;5073294;28;20051;-61
2021/03/15 03:28:13;;;;;;;11.52;4.13;;;;;;;23.00;53.77;99907.81;5073021;28;20035;-61
2021/03/15 03:30:40;;;;;;;9.52;3.75;;;;;;;23.04;53.51;99902.75;5073292;28;20024;-61
2021/03/15 03:33:07;;;;;;;11.00;4.30;;;;;;;23.19;54.51;99896.94;5072943;28;20463;-60
2021/03/15 03:35:32;;;;;;;13.30;4.13;;;;;;;23.21;52.75;99914.00;5073037;28;20469;-60
2021/03/15 03:37:58;;;;;;;13.45;4.50;;;;;;;23.17;52.98;99913.56;5072840;28;20055;-60
2021/03/15 03:40:24;;;;;;;12.27;4.25;;;;;;;23.14;51.09;99910.44;5072702;28;20387;-61
2021/03/15 03:42:49;;;;;;;11.18;4.28;;;;;;;22.97;51.84;99919.25;5072687;28;20028;-60
2021/03/15 03:45:15;;;;;;;11.35;4.07;;;;;;;22.88;51.97;99915.13;5072885;28;20349;-60
2021/03/15 03:47:41;;;;;;;12.18;4.20;;;;;;;22.82;49.29;99924.22;5073015;28;20028;-60
2021/03/15 03:50:11;;;;;;;11.77;4.38;;;;;;;22.83;48.69;99920.41;5072558;28;20538;-61
2021/03/15 03:52:39;;;;;;;12.68;4.13;;;;;;;22.81;48.38;99908.78;5072453;28;20028;-61
2021/03/15 03:55:09;;;;;;;10.95;3.75;;;;;;;22.77;48.84;99831.69;5071859;28;20044;-60
2021/03/15 03:57:36;;;;;;;8.60;3.40;;;;;;;22.80;48.45;99833.13;5072852;28;20047;-60
2021/03/15 04:00:11;;;;;;;12.10;4.10;;;;;;;22.77;48.11;99891.13;5071162;28;20486;-61
2021/03/15 04:03:03;;;;;;;10.82;4.07;;;;;;;22.75;48.28;99920.66;5072982;28;20375;-61
2021/03/15 04:05:31;;;;;;;12.32;4.10;;;;;;;22.75;48.50;99920.66;5072692;28;20027;-61
2021/03/15 04:08:01;;;;;;;13.07;3.95;;;;;;;22.81;48.39;99922.50;5072491;28;20464;-60
2021/03/15 04:10:30;;;;;;;9.10;3.50;;;;;;;22.80;48.21;99923.56;5072337;28;20024;-60
2021/03/15 04:13:04;;;;;;;13.52;4.25;;;;;;;22.80;48.58;99924.41;5072445;28;20498;-61
2021/03/15 04:15:31;;;;;;;12.13;3.80;;;;;;;22.81;47.74;99930.72;5072569;28;20479;-61
2021/03/15 04:17:58;;;;;;;10.52;4.90;;;;;;;22.75;48.47;99931.63;5072369;28;20032;-61
2021/03/15 04:20:30;;;;;;;11.38;4.03;;;;;;;22.73;47.40;99939.22;5072409;28;20024;-60
2021/03/15 04:22:58;;;;;;;9.35;3.47;;;;;;;22.78;49.44;99933.91;5072153;28;20048;-61
2021/03/15 04:25:26;;;;;;;9.80;3.85;;;;;;;22.75;47.02;99916.03;5072534;28;20352;-61
2021/03/15 04:27:53;;;;;;;9.93;3.45;;;;;;;22.74;47.89;99924.47;5052630;28;20530;-60
2021/03/15 04:30:20;;;;;;;12.25;4.15;;;;;;;22.83;47.01;99923.13;5072169;28;20028;-60
2021/03/15 04:32:50;;;;;;;9.18;3.72;;;;;;;22.86;46.41;99927.38;5072333;28;20463;-60
2021/03/15 04:35:16;;;;;;;8.05;2.97;;;;;;;22.78;48.08;99931.16;5072321;28;20036;-61
2021/03/15 04:37:42;;;;;;;13.30;4.15;;;;;;;22.79;46.94;99927.38;5072435;28;20387;-61
2021/03/15 04:40:08;;;;;;;12.45;4.63;;;;;;;22.78;46.91;99925.69;5071402;28;20518;-60
2021/03/15 04:42:34;;;;;;;11.18;3.83;;;;;;;22.81;47.32;99930.72;5071921;28;20028;-60
2021/03/15 04:45:01;;;;;;;13.88;3.85;;;;;;;22.77;46.96;99930.34;5071429;28;20038;-61
2021/03/15 04:47:27;;;;;;;11.05;3.45;;;;;;;22.77;48.05;99935.81;5072313;28;20031;-60
2021/03/15 04:49:53;;;;;;;10.43;4.35;;;;;;;22.78;47.64;99939.38;5072159;28;20029;-61
2021/03/15 04:52:18;;;;;;;11.32;4.00;;;;;;;22.78;47.34;99942.13;5072014;28;20379;-60
2021/03/15 04:54:44;;;;;;;11.60;4.00;;;;;;;22.81;47.60;99941.69;5072068;28;20040;-61
2021/03/15 04:57:11;;;;;;;13.20;4.47;;;;;;;22.86;48.95;99941.91;5069409;28;20017;-60
2021/03/15 04:59:39;;;;;;;12.50;4.40;;;;;;;22.93;48.63;99941.84;5071853;28;20021;-60
2021/03/15 05:02:06;;;;;;;11.82;4.38;;;;;;;23.74;51.98;99947.22;5071746;28;20055;-60
2021/03/15 05:04:32;;;;;;;14.77;4.47;;;;;;;24.59;47.30;99917.81;5072562;28;20024;-60
2021/03/15 05:06:58;;;;;;;12.48;4.47;;;;;;;24.48;48.95;99931.50;5075743;28;20020;-61
2021/03/15 05:09:24;;;;;;;13.93;4.85;;;;;;;24.47;50.07;99935.31;5075389;28;20365;-60
2021/03/15 05:11:50;;;;;;;11.52;4.15;;;;;;;24.67;50.54;99949.59;5075271;28;20031;-60
2021/03/15 05:14:16;;;;;;;10.95;4.25;;;;;;;24.92;50.83;99948.59;5075580;28;20021;-60
2021/03/15 05:16:43;;;;;;;10.35;3.72;;;;;;;25.24;51.46;99952.75;5075311;28;20090;-60
2021/03/15 05:19:11;;;;;;;17.67;5.03;;;;;;;25.39;51.02;99955.88;5075528;28;20378;-60
2021/03/15 05:21:38;;;;;;;12.55;4.35;;;;;;;25.47;50.95;99941.72;5057882;28;20024;-60
2021/03/15 05:24:04;;;;;;;11.13;4.07;;;;;;;25.38;48.89;99940.44;5075366;28;20103;-61
2021/03/15 05:26:35;;;;;;;11.30;4.35;;;;;;;25.17;47.40;99941.00;5075546;28;20025;-61
2021/03/15 05:29:01;;;;;;;9.75;3.90;;;;;;;25.21;48.48;99936.72;5075495;28;20040;-60
2021/03/15 05:31:29;;;;;;;8.05;3.58;;;;;;;25.25;46.88;99937.06;5057587;28;20021;-61
2021/03/15 05:33:55;;;;;;;13.48;3.85;;;;;;;25.25;44.89;99954.41;5075274;28;20030;-61
2021/03/15 05:36:21;;;;;;;8.70;3.30;;;;;;;25.31;46.64;99947.13;5075194;28;20024;-60
2021/03/15 05:38:46;;;;;;;12.75;4.07;;;;;;;25.50;45.70;99952.25;5075390;28;20036;-61
2021/03/15 05:41:13;;;;;;;11.63;5.20;;;;;;;25.62;45.64;99949.50;5056495;28;20039;-59
2021/03/15 05:43:49;;;;;;;12.23;3.63;;;;;;;25.49;49.30;99949.75;5074096;28;20024;-60
2021/03/15 05:46:33;;;;;;;13.02;3.80;;;;;;;25.33;46.90;99945.78;5074771;28;20012;-61
2021/03/15 05:49:35;;;;;;;14.75;4.85;;;;;;;25.45;49.77;99960.41;5075205;28;20058;-60
2021/03/15 05:52:37;;;;;;;10.63;3.83;;;;;;;25.33;49.65;99961.47;5074897;28;20375;-61
2021/03/15 05:55:21;;;;;;;9.90;3.65;;;;;;;25.18;48.50;99965.50;5074626;28;20059;-62
2021/03/15 05:58:06;;;;;;;11.73;4.32;;;;;;;25.15;46.58;99965.16;5075024;28;20032;-61
2021/03/15 06:01:01;;;;;;;11.43;3.35;;;;;;;25.18;49.93;99973.75;5074788;28;20029;-60
2021/03/15 06:03:32;;;;;;;;;;;;;;;25.20;48.90;99962.56;5075055;28;20468;-60
2021/03/15 06:06:01;;;;;;;10.68;4.10;;;;;;;25.18;48.47;99970.19;5074585;28;19950;-60
2021/03/15 06:08:34;;;;;;;11.55;3.90;;;;;;;25.27;48.93;99967.94;5074590;28;20028;-60
2021/03/15 06:11:17;;;;;;;11.77;4.10;;;;;;;25.25;49.19;99967.34;5074081;28;20108;-60
2021/03/15 06:13:43;;;;;;;10.60;3.97;;;;;;;25.26;49.29;99974.50;5054691;28;20159;-61
2021/03/15 06:16:11;;;;;;;12.50;4.47;;;;;;;25.37;48.19;99980.03;5070130;28;20074;-60
2021/03/15 06:18:38;;;;;;;9.52;3.65;;;;;;;25.37;51.03;99982.78;5074400;28;20028;-60
2021/03/15 06:21:04;;;;;;;10.75;4.15;;;;;;;25.21;48.28;99982.66;5073017;28;20024;-60
2021/03/15 06:23:30;;;;;;;10.43;4.35;;;;;;;25.21;48.82;99986.22;5074883;28;20474;-60
2021/03/15 06:25:55;;;;;;;11.77;3.85;;;;;;;25.17;47.75;99990.50;5074154;28;20488;-60
2021/03/15 06:28:22;;;;;;;9.48;3.85;;;;;;;25.26;50.26;99994.59;5074272;28;20040;-60
2021/03/15 06:30:49;;;;;;;11.55;3.60;;;;;;;25.24;48.30;99995.91;5074350;28;20056;-60
2021/03/15 06:33:18;;;;;;;11.02;3.63;;;;;;;25.28;46.88;99997.94;5074265;28;20025;-60
2021/03/15 06:35:53;;;;;;;12.27;4.03;;;;;;;25.21;50.28;99997.22;5074187;28;20349;-60
2021/03/15 06:38:19;;;;;;;12.18;3.80;;;;;;;25.45;48.80;100003.59;5074094;28;20129;-60
2021/03/15 06:40:45;;;;;;;11.88;3.58;;;;;;;25.40;47.25;99998.81;5076439;28;20460;-60
2021/03/15 06:43:14;;;;;;;15.63;4.32;;;;;;;25.46;48.59;99994.25;5082379;28;20039;-59
2021/03/15 06:45:42;;;;;;;11.82;3.85;;;;;;;25.55;48.25;99997.50;5065173;28;20028;-60
2021/03/15 06:48:08;;;;;;;11.75;4.05;;;;;;;25.61;49.30;100015.81;5073899;28;20052;-60
2021/03/15 06:50:33;;;;;;;10.20;3.63;;;;;;;25.57;48.98;100011.84;5074405;28;20024;-60
2021/03/15 06:53:01;;;;;;;12.32;3.90;;;;;;;25.49;49.34;100010.28;5073607;28;20460;-60
2021/03/15 06:55:29;;;;;;;12.57;4.28;;;;;;;25.59;49.06;100012.44;5056134;28;20024;-60
2021/03/15 06:57:54;;;;;;;8.23;3.83;;;;;;;25.55;47.95;100019.53;5073039;28;20090;-62
2021/03/15 07:00:21;;;;;;;11.60;3.75;;;;;;;25.52;46.77;100019.97;5081120;28;20020;-60
2021/03/15 07:03:03;;;;;;;9.82;3.88;;;;;;;25.54;45.88;100017.84;5072610;28;20446;-60
2021/03/15 07:05:30;;;;;;;10.80;4.00;;;;;;;25.59;48.32;100032.56;5073995;28;20559;-61
2021/03/15 07:07:58;;;;;;;10.35;4.13;;;;;;;25.66;49.55;100029.66;5074614;28;20033;-60
2021/03/15 07:10:26;;;;;;;12.95;3.85;;;;;;;25.73;48.68;100030.44;5077300;28;20516;-60
2021/03/15 07:13:08;;;;;;;10.13;3.78;;;;;;;25.79;44.68;100043.22;5053352;28;20109;-60
2021/03/15 07:15:34;;;;;;;8.27;3.53;;;;;;;25.74;44.06;100051.38;5072009;28;20487;-60
2021/03/15 07:18:23;;;;;;;12.07;4.10;;;;;;;25.80;47.94;100044.91;5074613;28;20028;-61
2021/03/15 07:20:52;;;;;;;12.77;3.85;;;;;;;25.79;45.14;100054.25;5064311;28;20020;-60
2021/03/15 07:23:38;;;;;;;9.60;3.63;;;;;;;25.76;46.00;100032.72;5078367;28;20029;-61
2021/03/15 07:26:14;;;;;;;12.63;4.55;;;;;;;25.74;45.03;100051.38;5071711;28;20281;-60
2021/03/15 07:28:41;;;;;;;8.98;3.78;;;;;;;25.74;46.11;100048.63;5051626;28;20155;-59
2021/03/15 07:31:27;;;;;;;13.68;4.05;;;;;;;25.85;45.56;100058.78;5072641;28;20028;-60
2021/03/15 07:33:55;;;;;;;11.93;3.88;;;;;;;25.86;44.87;100071.47;5072336;28;20052;-60
2021/03/15 07:36:28;;;;;;;12.05;4.25;;;;;;;25.78;45.44;100063.59;5072375;28;20052;-60
2021/03/15 07:38:55;;;;;;;13.65;4.10;;;;;;;25.84;46.38;100064.53;5072223;28;20534;-61
2021/03/15 07:41:21;;;;;;;11.10;4.20;;;;;;;25.87;44.06;100062.16;5072888;28;20035;-61
2021/03/15 07:43:48;;;;;;;12.93;3.65;;;;;;;25.86;44.48;100071.47;5077441;28;20109;-60
2021/03/15 07:46:18;;;;;;;12.73;4.47;;;;;;;25.85;46.60;100078.06;5070876;28;20502;-60
2021/03/15 07:48:43;;;;;;;10.40;3.90;;;;;;;25.92;43.87;100081.53;5070106;28;20471;-59
2021/03/15 07:51:10;;;;;;;9.77;4.43;;;;;;;25.96;45.14;100087.41;5072353;28;20028;-60
2021/03/15 07:53:39;;;;;;;10.05;3.33;;;;;;;25.94;44.12;100087.66;5053961;28;20079;-60
2021/03/15 07:56:06;;;;;;;10.50;4.05;;;;;;;25.98;46.96;100086.09;5071006;28;20062;-59
2021/03/15 07:58:34;;;;;;;10.25;3.65;;;;;;;25.98;43.52;100097.09;5072845;28;20055;-60
2021/03/15 08:01:00;;;;;;;11.77;4.53;;;;;;;26.03;47.82;100100.00;5060274;28;20448;-60
2021/03/15 08:03:27;;;;;;;9.18;4.00;;;;;;;26.04;47.46;100100.84;5073622;28;20024;-59
2021/03/15 08:05:57;;;;;;;13.20;4.63;;;;;;;26.11;48.47;100107.03;5071822;28;20050;-60
2021/03/15 08:08:22;;;;;;;12.05;3.55;;;;;;;25.99;48.48;100108.94;5071394;28;20054;-60
2021/03/15 08:10:49;;;;;;;13.32;4.28;;;;;;;25.80;48.99;100110.97;5071873;28;20028;-60
2021/03/15 08:13:18;;;;;;;12.43;3.40;;;;;;;25.79;50.14;100112.91;5070009;28;20440;-60
2021/03/15 08:15:48;;;;;;;10.00;4.03;;;;;;;25.64;49.26;100106.13;5068292;28;20032;-60
2021/03/15 08:18:22;;;;;;;11.50;4.68;;;;;;;25.61;49.61;100139.66;5035820;28;20086;-59
2021/03/15 08:20:50;;;;;;;10.50;3.72;;;;;;;25.67;49.93;100134.03;5059297;28;20024;-60
2021/03/15 08:23:18;;;;;;;12.80;4.40;;;;;;;25.65;49.52;100140.84;5060715;28;20021;-59
2021/03/15 08:25:45;;;;;;;12.43;4.53;;;;;;;25.63;49.17;100143.84;5060420;28;20112;-60
2021/03/15 08:28:13;;;;;;;11.13;4.03;;;;;;;25.62;51.11;100149.59;5058270;28;20099;-60
2021/03/15 08:30:45;;;;;;;11.52;4.25;;;;;;;25.59;48.79;100147.31;5063806;28;20048;-60
2021/03/15 08:33:14;;;;;;;11.25;4.32;;;;;;;25.57;50.44;100154.97;5050381;28;20263;-59
2021/03/15 08:35:40;;;;;;;11.85;4.40;;;;;;;25.41;47.19;100151.81;5064068;28;20032;-60
2021/03/15 08:38:06;;;;;;;14.23;4.80;;;;;;;25.40;46.80;100147.38;5061893;28;20379;-61
2021/03/15 08:40:41;;;;;;;11.90;4.63;;;;;;;25.45;49.29;100157.69;5067736;28;20024;-59
2021/03/15 08:43:19;;;;;;;8.50;3.78;;;;;;;25.39;46.31;100155.88;5051300;28;20029;-60
2021/03/15 08:45:54;;;;;;;10.60;4.20;;;;;;;25.45;46.24;100161.25;5070588;28;20099;-61
2021/03/15 08:48:39;;;;;;;12.73;4.10;;;;;;;25.49;45.19;100170.72;5064467;28;20070;-60
2021/03/15 08:51:10;;;;;;;9.73;3.78;;;;;;;25.43;45.57;100160.66;5051919;28;20423;-59
2021/03/15 08:53:41;;;;;;;11.63;4.07;;;;;;;25.50;45.71;100169.66;5064656;28;20090;-60
2021/03/15 08:56:12;;;;;;;12.38;4.15;;;;;;;25.59;49.42;100175.66;5059885;28;20029;-60
2021/03/15 08:58:44;;;;;;;9.68;3.67;;;;;;;25.68;48.96;100179.78;5062031;28;20353;-60
2021/03/15 09:01:12;;;;;;;8.63;3.42;;;;;;;25.68;49.18;100178.94;5054163;28;20024;-59
2021/03/15 09:03:58;;;;;;;14.23;3.92;;;;;;;25.62;48.24;100174.34;5076941;28;20470;-60
2021/03/15 09:06:33;;;;;;;9.88;4.15;;;;;;;25.71;47.56;100189.50;5067949;28;20028;-60
2021/03/15 09:09:23;;;;;;;11.50;3.63;;;;;;;25.72;46.99;100175.50;5072700;28;20029;-64
2021/03/15 09:11:50;;;;;;;12.55;3.75;;;;;;;25.70;49.17;100176.81;5071822;28;20418;-61
2021/03/15 09:14:20;;;;;;;10.52;3.65;;;;;;;25.73;44.67;100198.34;5071847;28;20471;-60
2021/03/15 09:17:21;;;;;;;9.77;3.30;;;;;;;25.76;45.83;100186.88;5074104;28;20405;-65
2021/03/15 09:19:47;;;;;;;10.07;3.33;;;;;;;25.78;45.14;100195.72;5057611;28;20036;-59
2021/03/15 09:22:15;;;;;;;7.35;3.25;;;;;;;25.84;47.06;100186.50;5073876;28;20284;-60
2021/03/15 09:24:46;;;;;;;9.20;2.88;;;;;;;25.82;46.08;100196.94;5086047;28;20024;-60
2021/03/15 09:27:28;;;;;;;8.75;2.72;;;;;;;25.76;47.49;100212.50;5074836;28;20027;-60
2021/03/15 09:29:59;;;;;;;9.45;3.17;;;;;;;25.90;45.25;100210.38;5076971;28;20043;-60
2021/03/15 09:32:30;;;;;;;8.55;3.15;;;;;;;25.87;46.72;100210.84;5046657;28;20036;-60
2021/03/15 09:34:58;;;;;;;12.98;3.58;;;;;;;25.90;43.45;100212.28;5062955;28;20214;-60
2021/03/15 09:37:23;;;;;;;10.23;3.40;;;;;;;25.96;43.99;100220.44;5063829;28;20039;-60
2021/03/15 09:39:49;;;;;;;13.68;4.80;;;;;;;25.91;47.03;100217.56;5063455;28;20025;-60
2021/03/15 09:42:17;;;;;;;14.07;4.25;;;;;;;25.96;48.60;100220.44;5065228;28;20091;-61
2021/03/15 09:44:42;;;;;;;14.23;3.75;;;;;;;25.72;44.61;100226.97;5070119;28;20363;-60
2021/03/15 09:47:08;;;;;;;14.82;4.32;;;;;;;25.73;46.31;100231.41;5069929;28;20036;-60
2021/03/15 09:49:41;;;;;;;13.68;5.57;;;;;;;26.01;45.72;100227.97;5068850;28;20122;-59
2021/03/15 09:52:12;;;;;;;12.65;4.38;;;;;;;26.13;44.61;100223.31;5063970;28;20032;-61
2021/03/15 09:54:44;;;;;;;15.57;4.75;;;;;;;26.15;43.99;100228.59;5075743;28;20054;-60
2021/03/15 09:57:10;;;;;;;14.57;4.55;;;;;;;26.25;47.86;100232.44;5037268;28;20024;-61
2021/03/15 09:59:36;;;;;;;11.32;4.47;;;;;;;26.30;46.11;100234.47;5060872;28;20260;-61
2021/03/15 10:02:01;;;;;;;18.27;4.90;;;;;;;26.31;48.93;100238.91;5068889;28;20043;-60
2021/03/15 10:04:34;;;;;;;13.10;4.63;;;;;;;26.28;45.79;100228.38;5072320;28;20027;-61
2021/03/15 10:07:01;;;;;;;15.52;5.13;;;;;;;26.25;48.04;100235.22;5072256;28;20399;-60
2021/03/15 10:09:27;;;;;;;13.32;4.47;;;;;;;26.33;45.26;100243.09;5070642;28;20052;-61
2021/03/15 10:11:54;;;;;;;13.80;5.55;;;;;;;26.32;46.46;100246.09;5070058;28;20636;-61
2021/03/15 10:14:20;;;;;;;12.05;4.45;;;;;;;26.31;47.59;100249.94;5065107;28;20039;-61
2021/03/15 10:17:00;;;;;;;14.60;5.30;;;;;;;26.30;46.69;100251.84;5070731;28;20130;-60
2021/03/15 10:19:28;;;;;;;14.60;5.20;;;;;;;26.21;48.78;100255.22;5059719;28;20039;-60
2021/03/15 10:22:07;;;;;;;12.52;4.40;;;;;;;26.25;46.50;100250.91;5059762;28;20117;-60
2021/03/15 10:24:38;;;;;;;14.68;4.72;;;;;;;26.37;48.79;100249.00;5073251;28;20057;-61
2021/03/15 10:27:05;;;;;;;12.27;5.25;;;;;;;26.27;49.41;100257.00;5067008;28;20067;-60
2021/03/15 10:29:32;;;;;;;16.25;5.07;;;;;;;26.25;50.05;100256.41;5061497;28;20468;-60
2021/03/15 10:32:06;;;;;;;14.80;5.65;;;;;;;26.00;48.92;100257.44;5058121;28;20401;-60
2021/03/15 10:34:31;;;;;;;17.48;5.40;;;;;;;26.01;50.02;100261.03;5060845;28;20082;-60
2021/03/15 10:36:57;;;;;;;15.10;5.22;;;;;;;25.87;48.76;100265.91;5069023;28;20032;-61
2021/03/15 10:39:24;;;;;;;15.32;5.60;;;;;;;25.95;46.47;100273.00;5060617;28;20103;-60
2021/03/15 10:41:50;;;;;;;16.77;5.63;;;;;;;25.81;50.67;100272.34;5055738;28;20029;-60
2021/03/15 10:44:21;;;;;;;15.82;4.68;;;;;;;25.69;47.95;100279.72;5055451;28;20690;-61
2021/03/15 10:46:57;;;;;;;16.95;4.68;;;;;;;25.78;48.90;100273.66;5041375;28;20111;-61
2021/03/15 10:49:25;;;;;;;13.57;4.68;;;;;;;25.85;45.60;100279.06;5061501;28;20103;-60
2021/03/15 10:51:53;;;;;;;13.35;4.75;;;;;;;25.64;49.93;100279.56;5066817;28;20475;-61
2021/03/15 10:54:33;;;;;;;16.38;5.05;;;;;;;25.61;46.85;100283.59;5057882;28;20097;-61
2021/03/15 10:57:19;;;;;;;15.88;5.38;;;;;;;25.62;48.48;100287.19;5061402;28;20052;-61
2021/03/15 10:59:46;;;;;;;15.50;4.95;;;;;;;25.57;45.79;100303.59;5071493;28;20030;-61
2021/03/15 11:02:25;;;;;;;15.88;5.35;;;;;;;25.58;47.22;100278.56;5061967;28;20025;-61
2021/03/15 11:04:53;;;;;;;16.58;5.03;;;;;;;25.73;47.40;100280.94;5062193;28;20547;-60
2021/03/15 11:07:30;;;;;;;15.68;5.18;;;;;;;25.62;45.63;100300.97;5062519;28;20028;-60
2021/03/15 11:10:07;;;;;;;21.48;5.28;;;;;;;25.66;46.19;100299.41;5050048;28;20078;-60
2021/03/15 11:12:38;;;;;;;16.38;4.78;;;;;;;25.72;45.16;100301.28;5052366;28;20071;-60
2021/03/15 11:15:12;;;;;;;18.75;5.40;;;;;;;25.73;46.46;100308.47;5056902;28;20024;-61
2021/03/15 11:17:39;;;;;;;16.27;5.55;;;;;;;25.76;44.64;100313.50;5072895;28;20367;-61
2021/03/15 11:20:08;;;;;;;18.48;5.22;;;;;;;25.80;49.03;100314.72;5071475;28;20082;-60
2021/03/15 11:22:47;;;;;;;16.52;5.53;;;;;;;25.76;50.14;100310.75;5072595;28;20484;-60
2021/03/15 11:25:13;;;;;;;13.40;4.75;;;;;;;25.89;47.47;100315.25;5073061;28;20070;-60
2021/03/15 11:27:38;;;;;;;15.82;5.15;;;;;;;25.86;46.62;100315.69;5072547;28;20044;-60
2021/03/15 11:30:05;;;;;;;13.07;4.28;;;;;;;25.88;46.28;100313.56;5071746;28;20471;-61
2021/03/15 11:32:30;;;;;;;14.15;4.55;;;;;;;25.86;43.97;100313.78;5071915;28;20453;-60
2021/03/15 11:34:56;;;;;;;20.20;5.18;;;;;;;25.84;45.51;100310.41;5072784;28;20287;-60